Time;durP1;ratioP1;P1;durP2;ratioP2;P2;SDS_P1;SDS_P2;PMS_P1;PMS_P2;Temp;Humidity;BMP_temperature;BMP_pressure;BME280_temperature;BME280_humidity;BME280_pressure;Samples;Min_cycle;Max_cycle;Signal;HPM_P1;HPM_P2
2021/06/05 00:02:19;;;;;;;;;;;;;;;12.66;75.02;99791.09;1727654;82;20075;-88
2021/06/05 00:04:45;;;;;;;;;;;;;;;12.64;74.94;99791.58;1699397;80;20483;-91
2021/06/05 00:07:12;;;;;;;;;;;;;;;12.63;75.95;99794.21;1737643;83;20127;-90
2021/06/05 00:09:39;;;;;;;;;;;;;;;12.63;76.44;99791.15;1742951;82;20102;-88
2021/06/05 00:12:08;;;;;;;;;;;;;;;12.65;76.20;99793.31;1726107;83;20117;-88
2021/06/05 00:14:34;;;;;;;;;;;;;;;12.67;76.87;99791.52;1727542;83;20111;-88
2021/06/05 00:17:00;;;;;;;;;;;;;;;12.69;76.55;99789.73;1742723;83;20104;-87
2021/06/05 00:19:27;;;;;;;;;;;;;;;12.69;77.66;99785.83;1734415;83;20110;-87
2021/06/05 00:21:53;;;;;;;;;;;;;;;12.66;75.93;99787.64;1715386;81;20123;-87
2021/06/05 00:24:19;;;;;;;;;;;;;;;12.62;75.89;99780.77;1719395;83;20131;-88
2021/06/05 00:26:46;;;;;;;;;;;;;;;12.54;73.05;99780.94;1742415;80;20131;-87
2021/06/05 00:29:12;;;;;;;;;;;;;;;12.50;74.61;99772.32;1742432;83;20158;-88
2021/06/05 00:31:39;;;;;;;;;;;;;;;12.47;76.48;99781.95;1742796;82;20557;-88
2021/06/05 00:34:05;;;;;;;;;;;;;;;12.39;76.11;99784.73;1738897;83;20652;-87
2021/06/05 00:36:32;;;;;;;;;;;;;;;12.33;75.83;99784.86;1720141;83;20123;-86
2021/06/05 00:38:59;;;;;;;;;;;;;;;12.23;75.87;99780.73;1765578;81;20139;-86
2021/06/05 00:41:27;;;;;;;;;;;;;;;12.16;74.93;99786.53;1742604;82;20147;-87
2021/06/05 00:43:57;;;;;;;;;;;;;;;12.09;74.20;99787.53;1765623;81;20584;-87
2021/06/05 00:46:25;;;;;;;;;;;;;;;12.03;76.33;99785.91;1733543;82;20643;-86
2021/06/05 00:48:53;;;;;;;;;;;;;;;12.00;75.94;99778.62;1739488;82;20119;-87
2021/06/05 00:51:26;;;;;;;;;;;;;;;11.98;75.03;99780.36;1729342;83;20143;-86
2021/06/05 00:53:53;;;;;;;;;;;;;;;11.93;76.39;99783.92;1718501;83;20099;-86
2021/06/05 00:56:19;;;;;;;;;;;;;;;11.88;75.53;99782.28;1713451;84;20110;-87
2021/06/05 00:58:46;;;;;;;;;;;;;;;11.86;74.86;99777.55;1713557;83;20193;-87
2021/06/05 01:01:16;;;;;;;;;;;;;;;11.82;74.75;99778.05;1731950;83;20194;-86
2021/06/05 01:03:45;;;;;;;;;;;;;;;11.79;75.12;99775.94;1738177;80;20421;-88
2021/06/05 01:06:18;;;;;;;;;;;;;;;11.73;74.87;99781.67;1745384;82;20091;-86
2021/06/05 01:09:01;;;;;;;;;;;;;;;11.68;78.08;99774.85;1745011;82;20134;-87
2021/06/05 01:11:39;;;;;;;;;;;;;;;11.60;78.09;99771.09;1719546;84;20145;-87
2021/06/05 01:14:24;;;;;;;;;;;;;;;11.52;79.10;99776.88;1717907;82;20121;-86
2021/06/05 01:16:53;;;;;;;;;;;;;;;11.42;77.59;99764.89;1745291;82;20133;-86
2021/06/05 01:19:40;;;;;;;;;;;;;;;11.41;75.45;99785.31;1733427;80;20119;-87
2021/06/05 01:22:20;;;;;;;;;;;;;;;11.36;78.07;99782.80;1681380;78;20154;-90
2021/06/05 01:25:12;;;;;;;;;;;;;;;11.32;75.47;99778.50;1690155;85;20501;-86
2021/06/05 01:27:42;;;;;;;;;;;;;;;11.28;77.25;99777.72;1675701;83;20202;-89
2021/06/05 01:30:18;;;;;;;;;;;;;;;11.24;78.65;99777.78;1753514;81;20125;-86
2021/06/05 01:32:46;;;;;;;;;;;;;;;11.21;79.80;99771.34;1753347;79;20078;-90
2021/06/05 01:35:13;;;;;;;;;;;;;;;11.17;78.54;99783.99;1728959;82;20126;-90
2021/06/05 01:37:41;;;;;;;;;;;;;;;11.11;80.56;99780.59;1686529;84;20154;-90
2021/06/05 01:40:13;;;;;;;;;;;;;;;11.09;79.84;99780.20;1736197;80;20420;-88
2021/06/05 01:42:41;;;;;;;;;;;;;;;11.04;80.45;99769.89;1750954;79;20106;-89
2021/06/05 01:45:11;;;;;;;;;;;;;;;11.00;80.21;99775.14;1761557;78;20094;-88
2021/06/05 01:47:39;;;;;;;;;;;;;;;10.96;80.72;99776.92;1761619;79;20087;-89
2021/06/05 01:50:08;;;;;;;;;;;;;;;10.72;81.36;99737.85;1760456;81;20130;-88
2021/06/05 01:52:36;;;;;;;;;;;;;;;10.88;81.40;99782.27;1746888;82;20138;-87
2021/06/05 01:55:13;;;;;;;;;;;;;;;10.83;79.14;99784.08;1744497;82;20096;-87
2021/06/05 01:57:53;;;;;;;;;;;;;;;10.80;78.26;99788.45;1719922;82;20130;-88
2021/06/05 02:00:27;;;;;;;;;;;;;;;10.74;77.58;99788.10;1746865;80;20506;-87
2021/06/05 02:02:54;;;;;;;;;;;;;;;10.72;80.56;99789.45;1748174;81;20147;-87
2021/06/05 02:05:25;;;;;;;;;;;;;;;10.72;82.23;99784.25;1749290;79;20112;-89
2021/06/05 02:07:53;;;;;;;;;;;;;;;10.74;82.58;99786.80;1750108;79;20096;-89
2021/06/05 02:10:24;;;;;;;;;;;;;;;10.77;80.94;99780.72;1750136;79;20138;-88
2021/06/05 02:12:53;;;;;;;;;;;;;;;10.78;80.43;99775.47;1750315;79;20092;-87
2021/06/05 02:15:25;;;;;;;;;;;;;;;10.80;81.21;99777.60;1719898;81;20216;-88
2021/06/05 02:17:55;;;;;;;;;;;;;;;10.80;81.78;99778.91;1715768;80;20566;-89
2021/06/05 02:20:24;;;;;;;;;;;;;;;10.82;82.31;99778.89;1705900;80;20176;-91
2021/06/05 02:22:53;;;;;;;;;;;;;;;10.83;81.30;99776.72;1711251;81;20154;-87
2021/06/05 02:25:22;;;;;;;;;;;;;;;10.86;81.90;99775.35;1713546;83;20107;-86
2021/06/05 02:27:54;;;;;;;;;;;;;;;10.86;77.80;99773.64;1713522;78;20102;-87
2021/06/05 02:30:22;;;;;;;;;;;;;;;10.83;81.44;99774.97;1684124;80;20099;-87
2021/06/05 02:32:51;;;;;;;;;;;;;;;10.83;80.61;99779.32;1730767;78;20172;-88
2021/06/05 02:35:25;;;;;;;;;;;;;;;10.84;80.73;99780.61;1735601;81;20093;-87
2021/06/05 02:37:56;;;;;;;;;;;;;;;10.82;80.32;99774.53;1715205;81;20154;-88
2021/06/05 02:40:28;;;;;;;;;;;;;;;10.82;81.48;99774.53;1736453;81;20149;-88
2021/06/05 02:42:57;;;;;;;;;;;;;;;10.83;80.48;99775.42;1713599;83;20117;-89
2021/06/05 02:45:32;;;;;;;;;;;;;;;10.84;81.01;99771.50;1714972;80;20135;-88
2021/06/05 02:50:35;;;;;;;;;;;;;;;10.86;82.16;99767.55;1681531;83;20181;-88
2021/06/05 02:53:03;;;;;;;;;;;;;;;10.84;77.48;99771.50;1704161;83;20098;-87
2021/06/05 02:55:30;;;;;;;;;;;;;;;10.81;81.74;99766.33;1704640;84;20087;-87
2021/06/05 02:57:56;;;;;;;;;;;;;;;10.80;80.81;99766.34;1684838;84;20155;-86
2021/06/05 03:00:31;;;;;;;;;;;;;;;10.78;81.51;99767.66;1704517;84;20131;-88
2021/06/05 03:02:59;;;;;;;;;;;;;;;10.75;80.67;99762.53;1704648;84;20098;-86
2021/06/05 03:05:26;;;;;;;;;;;;;;;10.71;82.36;99762.16;1682044;84;20164;-87
2021/06/05 03:07:54;;;;;;;;;;;;;;;10.67;81.82;99757.88;1676684;86;20121;-88
2021/06/05 03:10:24;;;;;;;;;;;;;;;10.65;83.53;99756.60;1676164;86;20105;-86
2021/06/05 03:12:52;;;;;;;;;;;;;;;10.65;82.21;99765.70;1677776;80;20196;-86
2021/06/05 03:15:18;;;;;;;;;;;;;;;10.61;81.31;99765.33;1690094;83;20202;-90
2021/06/05 03:17:45;;;;;;;;;;;;;;;10.58;80.23;99764.51;1698344;83;20581;-87
2021/06/05 03:20:16;;;;;;;;;;;;;;;10.56;79.03;99767.13;1691728;81;20166;-86
2021/06/05 03:22:42;;;;;;;;;;;;;;;10.58;82.73;99769.27;1672363;86;20444;-85
2021/06/05 03:25:10;;;;;;;;;;;;;;;10.62;82.45;99766.18;1673155;85;20161;-87
2021/06/05 03:27:38;;;;;;;;;;;;;;;10.67;82.75;99769.59;1693335;80;20092;-90
2021/06/05 03:30:07;;;;;;;;;;;;;;;10.71;82.27;99772.11;1687780;83;20118;-90
2021/06/05 03:32:35;;;;;;;;;;;;;;;10.79;82.08;99772.45;1686009;80;20108;-88
2021/06/05 03:35:01;;;;;;;;;;;;;;;10.85;81.18;99777.55;1697226;80;20170;-88
2021/06/05 03:37:28;;;;;;;;;;;;;;;10.91;77.34;99765.75;1697303;80;20130;-88
2021/06/05 03:39:56;;;;;;;;;;;;;;;10.97;81.23;99759.14;1699537;81;20159;-88
2021/06/05 03:42:23;;;;;;;;;;;;;;;11.02;80.25;99765.15;1705882;84;20143;-87
2021/06/05 03:44:50;;;;;;;;;;;;;;;11.05;80.58;99758.58;1705787;83;20104;-89
2021/06/05 03:47:19;;;;;;;;;;;;;;;11.10;80.44;99761.98;1701295;84;20167;-89
2021/06/05 03:49:46;;;;;;;;;;;;;;;11.17;80.00;99764.02;1675241;81;20285;-91
2021/06/05 03:52:13;;;;;;;;;;;;;;;11.22;78.13;99766.12;1737029;80;20155;-91
2021/06/05 03:54:40;;;;;;;;;;;;;;;11.25;79.77;99764.75;1735377;83;20151;-88
2021/06/05 03:57:06;;;;;;;;;;;;;;;11.27;78.38;99765.58;1721736;82;20137;-89
2021/06/05 03:59:33;;;;;;;;;;;;;;;11.31;79.05;99765.94;1734105;83;20172;-86
2021/06/05 04:01:59;;;;;;;;;;;;;;;11.28;78.33;99754.72;1744181;81;20299;-86
2021/06/05 04:04:25;;;;;;;;;;;;;;;11.32;76.42;99761.58;1747167;81;20125;-86
2021/06/05 04:06:51;;;;;;;;;;;;;;;11.32;76.08;99759.86;1737680;83;20479;-89
2021/06/05 04:09:18;;;;;;;;;;;;;;;11.33;80.31;99763.31;1734881;82;20176;-86
2021/06/05 04:11:44;;;;;;;;;;;;;;;11.36;77.91;99760.67;1726290;82;20148;-91
2021/06/05 04:14:11;;;;;;;;;;;;;;;11.37;79.53;99762.38;1739187;82;20139;-89
2021/06/05 04:16:37;;;;;;;;;;;;;;;11.38;80.24;99759.32;1757337;82;20130;-89
2021/06/05 04:19:04;;;;;;;;;;;;;;;11.41;79.64;99760.58;1741874;82;20848;-89
2021/06/05 04:21:30;;;;;;;;;;;;;;;11.44;77.73;99757.91;1722564;82;20164;-87
2021/06/05 04:23:56;;;;;;;;;;;;;;;11.45;79.45;99757.03;1738136;83;20470;-88
2021/06/05 04:26:24;;;;;;;;;;;;;;;11.46;80.23;99751.81;1737706;82;20447;-91
2021/06/05 04:28:50;;;;;;;;;;;;;;;11.50;80.14;99755.22;1724419;78;20141;-90
2021/06/05 04:31:16;;;;;;;;;;;;;;;11.54;78.23;99749.06;1701779;83;20151;-88
2021/06/05 04:33:43;;;;;;;;;;;;;;;11.61;79.58;99750.65;1710140;82;20142;-90
2021/06/05 04:36:12;;;;;;;;;;;;;;;11.69;79.37;99744.84;1733867;81;20473;-87
2021/06/05 04:38:40;;;;;;;;;;;;;;;11.80;78.52;99748.56;1755073;82;20116;-87
2021/06/05 04:41:07;;;;;;;;;;;;;;;11.90;79.33;99744.06;1754731;80;20121;-88
2021/06/05 04:43:34;;;;;;;;;;;;;;;12.00;78.44;99747.34;1754608;82;20119;-89
2021/06/05 04:46:00;;;;;;;;;;;;;;;12.12;78.95;99737.97;1768892;81;20084;-88
2021/06/05 04:48:27;;;;;;;;;;;;;;;12.24;75.84;99742.91;1756437;81;20103;-87
2021/06/05 04:50:54;;;;;;;;;;;;;;;12.34;76.30;99737.90;1754846;82;20143;-88
2021/06/05 04:53:23;;;;;;;;;;;;;;;12.43;76.74;99736.83;1754672;82;20148;-90
2021/06/05 04:55:50;;;;;;;;;;;;;;;12.54;76.55;99740.06;1754702;82;20179;-89
2021/06/05 04:58:17;;;;;;;;;;;;;;;12.66;75.72;99733.70;1754928;81;20159;-88
2021/06/05 05:00:46;;;;;;;;;;;;;;;12.78;75.80;99733.86;1754733;80;20142;-88
2021/06/05 05:03:16;;;;;;;;;;;;;;;12.92;75.57;99729.16;1761192;79;20257;-89
2021/06/05 05:05:43;;;;;;;;;;;;;;;13.06;75.47;99722.75;1760757;78;20112;-89
2021/06/05 05:08:12;;;;;;;;;;;;;;;13.18;74.01;99718.52;1760707;80;20114;-87
2021/06/05 05:10:44;;;;;;;;;;;;;;;13.30;73.88;99721.29;1770874;80;20093;-88
2021/06/05 05:13:13;;;;;;;;;;;;;;;13.41;73.58;99712.73;1770766;81;20120;-88
2021/06/05 05:15:41;;;;;;;;;;;;;;;13.51;73.08;99711.58;1774337;81;20128;-88
2021/06/05 05:18:07;;;;;;;;;;;;;;;13.62;72.64;99709.97;1776637;80;20132;-88
2021/06/05 05:20:36;;;;;;;;;;;;;;;13.72;72.36;99712.73;1776384;81;20129;-89
2021/06/05 05:23:04;;;;;;;;;;;;;;;13.76;70.85;99708.73;1776312;81;20117;-88
2021/06/05 05:25:32;;;;;;;;;;;;;;;13.83;71.12;99710.28;1776292;80;20096;-88
2021/06/05 05:27:58;;;;;;;;;;;;;;;13.96;70.57;99719.92;1776750;80;20108;-88
2021/06/05 05:30:31;;;;;;;;;;;;;;;14.02;70.69;99709.28;1776687;79;20104;-89
2021/06/05 05:32:58;;;;;;;;;;;;;;;14.11;70.12;99709.03;1775792;80;20113;-86
2021/06/05 05:35:25;;;;;;;;;;;;;;;14.21;68.98;99707.84;1776668;80;20164;-89
2021/06/05 05:37:51;;;;;;;;;;;;;;;14.28;68.48;99717.66;1776584;81;20145;-89
2021/06/05 05:40:19;;;;;;;;;;;;;;;14.36;67.15;99713.04;1777795;81;20102;-88
2021/06/05 05:42:45;;;;;;;;;;;;;;;14.45;68.30;99711.92;1781946;79;20072;-89
2021/06/05 05:45:13;;;;;;;;;;;;;;;14.50;66.52;99708.69;1730532;79;20122;-90
2021/06/05 05:47:39;;;;;;;;;;;;;;;14.56;65.60;99706.34;1793570;78;20109;-89
2021/06/05 05:50:09;;;;;;;;;;;;;;;14.66;65.71;99707.78;1776132;81;20089;-88
2021/06/05 05:52:35;;;;;;;;;;;;;;;14.71;64.69;99705.89;1776283;80;20154;-88
2021/06/05 05:55:03;;;;;;;;;;;;;;;14.75;64.79;99706.19;1776449;81;20120;-88
2021/06/05 05:57:29;;;;;;;;;;;;;;;14.82;62.81;99706.41;1776446;80;20165;-89
2021/06/05 05:59:56;;;;;;;;;;;;;;;14.90;63.74;99707.00;1776383;81;20078;-89
2021/06/05 06:02:22;;;;;;;;;;;;;;;15.02;64.13;99711.41;1778052;80;20179;-89
2021/06/05 06:04:48;;;;;;;;;;;;;;;15.10;62.12;99714.66;1780058;80;20124;-88
2021/06/05 06:07:15;;;;;;;;;;;;;;;15.16;59.95;99714.45;1779994;81;20120;-89
2021/06/05 06:09:42;;;;;;;;;;;;;;;15.25;59.98;99708.88;1779798;81;20124;-88
2021/06/05 06:12:09;;;;;;;;;;;;;;;15.36;60.30;99705.90;1779862;80;20120;-88
2021/06/05 06:14:35;;;;;;;;;;;;;;;15.45;59.03;99709.95;1779949;80;20080;-87
2021/06/05 06:17:02;;;;;;;;;;;;;;;15.57;60.22;99707.34;1780248;78;20087;-86
2021/06/05 06:19:28;;;;;;;;;;;;;;;15.67;57.69;99704.80;1780213;80;20105;-88
2021/06/05 06:21:55;;;;;;;;;;;;;;;15.77;57.97;99710.59;1779883;80;20073;-89
2021/06/05 06:24:21;;;;;;;;;;;;;;;15.87;57.97;99710.19;1779857;80;20204;-87
2021/06/05 06:26:47;;;;;;;;;;;;;;;15.99;59.34;99705.41;1779800;81;20076;-88
2021/06/05 06:29:16;;;;;;;;;;;;;;;16.08;59.32;99702.45;1780137;80;20089;-89
2021/06/05 06:31:43;;;;;;;;;;;;;;;16.16;59.87;99695.13;1779946;80;20084;-88
2021/06/05 06:34:10;;;;;;;;;;;;;;;16.24;58.83;99698.78;1780016;80;20171;-88
2021/06/05 06:36:38;;;;;;;;;;;;;;;16.38;59.46;99694.30;1779941;81;20124;-88
2021/06/05 06:39:05;;;;;;;;;;;;;;;16.45;58.47;99697.94;1780114;80;20168;-89
2021/06/05 06:41:32;;;;;;;;;;;;;;;16.55;58.85;99693.15;1779962;79;20120;-88
2021/06/05 06:44:00;;;;;;;;;;;;;;;16.64;58.74;99695.88;1788433;79;20108;-88
2021/06/05 06:46:30;;;;;;;;;;;;;;;16.76;59.86;99689.28;1788202;80;20126;-88
2021/06/05 06:48:59;;;;;;;;;;;;;;;16.90;59.80;99680.40;1788173;79;20094;-89
2021/06/05 06:51:26;;;;;;;;;;;;;;;17.03;59.38;99678.09;1788335;80;20134;-88
2021/06/05 06:53:53;;;;;;;;;;;;;;;17.16;58.70;99677.98;1788129;79;20120;-88
2021/06/05 06:56:19;;;;;;;;;;;;;;;17.28;57.24;99676.59;1787040;80;20151;-86
2021/06/05 06:58:49;;;;;;;;;;;;;;;17.34;58.20;99678.11;1786404;79;20108;-86
2021/06/05 07:01:16;;;;;;;;;;;;;;;17.40;55.84;99675.21;1781529;79;20139;-86
2021/06/05 07:03:43;;;;;;;;;;;;;;;17.47;56.62;99677.97;1788565;79;20136;-86
2021/06/05 07:06:10;;;;;;;;;;;;;;;17.50;55.71;99678.67;1776594;80;20188;-87
2021/06/05 07:08:39;;;;;;;;;;;;;;;17.64;58.23;99670.63;1810197;79;20137;-87
2021/06/05 07:11:09;;;;;;;;;;;;;;;17.78;57.08;99667.38;1791141;79;20153;-87
2021/06/05 07:13:35;;;;;;;;;;;;;;;17.91;57.04;99663.31;1818912;79;20144;-86
2021/06/05 07:16:03;;;;;;;;;;;;;;;18.08;56.38;99670.40;1774458;79;20112;-86
2021/06/05 07:18:30;;;;;;;;;;;;;;;18.17;55.00;99669.98;1772867;80;20127;-87
2021/06/05 07:20:57;;;;;;;;;;;;;;;18.29;54.82;99674.66;1772747;80;20568;-87
2021/06/05 07:23:26;;;;;;;;;;;;;;;18.39;56.08;99661.06;1772726;81;20115;-87
2021/06/05 07:25:53;;;;;;;;;;;;;;;18.52;53.82;99672.68;1781022;80;20115;-84
2021/06/05 07:28:26;;;;;;;;;;;;;;;18.62;53.52;99669.14;1789305;80;20184;-85
2021/06/05 07:30:53;;;;;;;;;;;;;;;18.75;56.08;99671.56;1785925;80;20128;-85
2021/06/05 07:33:20;;;;;;;;;;;;;;;18.92;56.40;99665.50;1788732;80;20076;-86
2021/06/05 07:35:47;;;;;;;;;;;;;;;19.09;55.71;99656.72;1791371;80;20114;-86
2021/06/05 07:38:15;;;;;;;;;;;;;;;19.24;53.19;99655.09;1793964;80;20137;-87
2021/06/05 07:40:42;;;;;;;;;;;;;;;19.36;54.84;99647.86;1783190;79;20540;-87
2021/06/05 07:43:08;;;;;;;;;;;;;;;19.44;52.46;99652.73;1768520;81;20146;-86
2021/06/05 07:45:35;;;;;;;;;;;;;;;19.48;52.16;99645.05;1780489;80;20127;-87
2021/06/05 07:48:02;;;;;;;;;;;;;;;19.47;51.06;99644.17;1789046;79;20140;-86
2021/06/05 07:50:28;;;;;;;;;;;;;;;19.59;53.14;99642.66;1796037;79;20148;-87
2021/06/05 07:52:55;;;;;;;;;;;;;;;19.66;51.63;99644.05;1810149;79;20231;-86
2021/06/05 07:55:21;;;;;;;;;;;;;;;19.82;53.39;99645.42;1793486;79;20151;-87
2021/06/05 07:57:48;;;;;;;;;;;;;;;19.86;51.85;99643.00;1772885;80;20147;-87
2021/06/05 08:00:18;;;;;;;;;;;;;;;19.90;52.14;99635.77;1773525;80;20119;-87
2021/06/05 08:02:44;;;;;;;;;;;;;;;20.03;51.20;99636.81;1766305;79;20122;-87
2021/06/05 08:05:12;;;;;;;;;;;;;;;20.12;51.82;99627.52;1755190;82;20087;-87
2021/06/05 08:07:39;;;;;;;;;;;;;;;20.21;51.84;99634.05;1754447;81;20170;-86
2021/06/05 08:10:07;;;;;;;;;;;;;;;20.28;50.58;99632.78;1754364;82;20146;-84
2021/06/05 08:12:34;;;;;;;;;;;;;;;20.44;51.75;99632.76;1727026;82;20148;-87
2021/06/05 08:15:01;;;;;;;;;;;;;;;20.55;50.76;99628.16;1695764;83;20111;-86
2021/06/05 08:17:27;;;;;;;;;;;;;;;20.63;47.58;99623.31;1708501;83;20162;-87
2021/06/05 08:19:53;;;;;;;;;;;;;;;20.69;49.38;99624.31;1708203;84;20157;-87
2021/06/05 08:22:23;;;;;;;;;;;;;;;20.82;50.33;99616.50;1708119;83;20522;-87
2021/06/05 08:24:49;;;;;;;;;;;;;;;20.98;46.42;99611.16;1688278;83;20137;-87
2021/06/05 08:27:16;;;;;;;;;;;;;;;21.13;47.53;99616.84;1708782;83;20134;-87
2021/06/05 08:29:42;;;;;;;;;;;;;;;21.16;44.13;99621.92;1708474;83;20152;-86
2021/06/05 08:32:08;;;;;;;;;;;;;;;21.29;47.24;99621.17;1708027;84;20110;-87
2021/06/05 08:34:35;;;;;;;;;;;;;;;21.41;47.48;99617.81;1705230;83;20111;-87
2021/06/05 08:37:01;;;;;;;;;;;;;;;21.39;46.17;99611.77;1679444;86;20137;-86
2021/06/05 08:39:28;;;;;;;;;;;;;;;21.47;46.26;99606.00;1709039;83;20183;-86
2021/06/05 08:41:58;;;;;;;;;;;;;;;21.60;48.53;99610.44;1737708;83;20147;-87
2021/06/05 08:44:37;;;;;;;;;;;;;;;21.76;48.61;99610.80;1739301;83;20147;-87
2021/06/05 08:47:16;;;;;;;;;;;;;;;21.89;47.99;99605.12;1712970;83;20159;-87
2021/06/05 08:49:43;;;;;;;;;;;;;;;21.99;47.99;99599.60;1734869;83;20119;-87
2021/06/05 08:52:25;;;;;;;;;;;;;;;22.13;46.87;99591.25;1708137;83;20108;-87
2021/06/05 08:54:54;;;;;;;;;;;;;;;22.23;47.94;99590.54;1706944;84;20126;-86
2021/06/05 08:57:26;;;;;;;;;;;;;;;22.14;44.04;99588.96;1708052;84;20155;-86
2021/06/05 08:59:55;;;;;;;;;;;;;;;22.22;45.36;99586.20;1708358;84;20181;-87
2021/06/05 09:02:25;;;;;;;;;;;;;;;22.38;46.74;99587.85;1703661;83;20247;-87
2021/06/05 09:04:53;;;;;;;;;;;;;;;22.50;44.32;99586.19;1729326;83;20178;-87
2021/06/05 09:07:20;;;;;;;;;;;;;;;22.58;47.19;99577.25;1716233;81;20118;-87
2021/06/05 09:09:49;;;;;;;;;;;;;;;22.70;46.03;99579.55;1765042;80;20153;-86
2021/06/05 09:12:16;;;;;;;;;;;;;;;22.78;46.90;99574.13;1759567;80;20150;-87
2021/06/05 09:14:44;;;;;;;;;;;;;;;22.84;45.14;99581.66;1759389;82;20130;-86
2021/06/05 09:17:17;;;;;;;;;;;;;;;22.89;42.00;99583.98;1759737;82;20649;-87
2021/06/05 09:19:59;;;;;;;;;;;;;;;23.01;44.66;99579.64;1759696;82;20122;-87
2021/06/05 09:22:29;;;;;;;;;;;;;;;22.97;40.97;99574.18;1759141;82;20190;-87
2021/06/05 09:24:55;;;;;;;;;;;;;;;23.15;42.28;99566.78;1760600;80;20202;-88
2021/06/05 09:27:24;;;;;;;;;;;;;;;23.27;41.50;99561.94;1760955;79;20113;-86
2021/06/05 09:29:56;;;;;;;;;;;;;;;23.45;44.43;99559.79;1765787;81;20141;-87
2021/06/05 09:32:38;;;;;;;;;;;;;;;23.62;40.17;99553.29;1765898;81;20094;-87
2021/06/05 09:35:10;;;;;;;;;;;;;;;23.80;42.28;99553.80;1786743;80;20132;-86
2021/06/05 09:37:39;;;;;;;;;;;;;;;23.78;40.78;99554.39;1778360;80;20495;-87
2021/06/05 09:40:09;;;;;;;;;;;;;;;23.67;33.24;99547.16;1760605;81;20135;-87
2021/06/05 09:42:42;;;;;;;;;;;;;;;23.77;34.88;99542.90;1736598;80;20153;-86
2021/06/05 09:45:27;;;;;;;;;;;;;;;23.84;35.50;99537.17;1744808;81;20125;-87
2021/06/05 09:48:14;;;;;;;;;;;;;;;23.94;38.82;99536.37;1748160;81;20147;-87
2021/06/05 09:50:43;;;;;;;;;;;;;;;24.06;33.47;99536.44;1745150;81;20150;-85
2021/06/05 09:53:18;;;;;;;;;;;;;;;24.00;35.17;99536.41;1764994;80;20142;-86
2021/06/05 09:55:45;;;;;;;;;;;;;;;23.98;33.51;99527.70;1752199;81;20134;-85
2021/06/05 09:58:32;;;;;;;;;;;;;;;24.05;31.08;99532.06;1767659;80;20113;-88
2021/06/05 10:01:14;;;;;;;;;;;;;;;24.10;32.68;99536.08;1751055;81;20159;-86
2021/06/05 10:03:40;;;;;;;;;;;;;;;24.12;33.97;99531.50;1738352;80;20120;-86
2021/06/05 10:06:40;;;;;;;;;;;;;;;24.29;35.95;99524.08;1767769;80;20091;-87
2021/06/05 10:09:27;;;;;;;;;;;;;;;24.44;30.39;99522.92;1737738;81;20192;-89
2021/06/05 10:12:18;;;;;;;;;;;;;;;24.57;29.13;99522.85;1744766;80;20095;-86
2021/06/05 10:15:06;;;;;;;;;;;;;;;24.68;30.62;99520.23;1766047;81;20146;-88
2021/06/05 10:17:42;;;;;;;;;;;;;;;24.80;32.52;99501.99;1766155;80;20186;-88
2021/06/05 10:20:28;;;;;;;;;;;;;;;24.78;32.27;99505.25;1766670;81;20096;-89
2021/06/05 10:22:57;;;;;;;;;;;;;;;24.80;29.53;99501.99;1768415;81;20143;-89
2021/06/05 10:25:33;;;;;;;;;;;;;;;24.91;31.32;99504.29;1776827;80;20124;-89
2021/06/05 10:28:02;;;;;;;;;;;;;;;25.04;32.67;99500.20;1768248;79;20103;-89
2021/06/05 10:30:35;;;;;;;;;;;;;;;25.14;31.12;99489.19;1726230;83;20134;-89
2021/06/05 10:33:03;;;;;;;;;;;;;;;25.31;34.04;99485.23;1716397;81;20064;-88
2021/06/05 10:35:34;;;;;;;;;;;;;;;25.40;30.35;99488.47;1738782;81;20212;-88
2021/06/05 10:38:04;;;;;;;;;;;;;;;25.36;30.70;99481.70;1739785;83;20151;-88
2021/06/05 10:40:30;;;;;;;;;;;;;;;25.43;32.21;99477.59;1733037;83;20164;-86
2021/06/05 10:42:57;;;;;;;;;;;;;;;25.55;31.07;99478.41;1738226;82;20151;-88
2021/06/05 10:45:29;;;;;;;;;;;;;;;25.64;30.59;99472.81;1735022;83;20176;-86
2021/06/05 10:48:27;;;;;;;;;;;;;;;25.78;33.58;99468.52;1725434;79;20085;-83
2021/06/05 10:51:03;;;;;;;;;;;;;;;25.93;33.36;99467.78;1754643;80;20081;-89
2021/06/05 10:53:41;;;;;;;;;;;;;;;26.02;29.51;99463.50;1792355;80;20151;-89
2021/06/05 10:56:14;;;;;;;;;;;;;;;25.91;24.42;99465.73;1791943;80;20105;-88
2021/06/05 10:58:44;;;;;;;;;;;;;;;25.95;26.51;99452.52;1792117;80;20084;-89
2021/06/05 11:01:23;;;;;;;;;;;;;;;26.01;28.44;99453.34;1752032;82;20115;-89
2021/06/05 11:03:52;;;;;;;;;;;;;;;26.04;26.79;99453.06;1774711;79;20105;-89
2021/06/05 11:06:37;;;;;;;;;;;;;;;26.14;24.40;99450.47;1772923;81;20175;-89
2021/06/05 11:09:29;;;;;;;;;;;;;;;26.24;28.88;99441.21;1772174;81;20160;-89
2021/06/05 11:12:02;;;;;;;;;;;;;;;26.25;26.13;99434.92;1752365;81;20123;-88
2021/06/05 11:14:41;;;;;;;;;;;;;;;26.45;28.55;99434.05;1742233;82;20107;-89
2021/06/05 11:17:28;;;;;;;;;;;;;;;26.63;25.26;99436.98;1763598;81;20089;-88
2021/06/05 11:20:08;;;;;;;;;;;;;;;26.78;26.62;99435.66;1772767;81;20116;-89
2021/06/05 11:22:54;;;;;;;;;;;;;;;26.86;26.93;99432.80;1751419;82;20095;-87
2021/06/05 11:25:24;;;;;;;;;;;;;;;27.01;27.57;99436.79;1772360;81;20139;-88
2021/06/05 11:27:52;;;;;;;;;;;;;;;27.11;23.76;99426.98;1748354;82;20178;-86
2021/06/05 11:30:25;;;;;;;;;;;;;;;27.23;28.03;99429.05;1716339;83;20175;-89
2021/06/05 11:32:59;;;;;;;;;;;;;;;27.30;25.57;99422.73;1751939;82;20095;-87
2021/06/05 11:35:41;;;;;;;;;;;;;;;27.34;24.85;99414.30;1772742;81;20148;-89
2021/06/05 11:38:14;;;;;;;;;;;;;;;27.10;22.42;99382.62;1772966;81;20171;-89
2021/06/05 11:41:04;;;;;;;;;;;;;;;27.23;22.35;99405.53;1731374;82;20123;-88
2021/06/05 11:43:34;;;;;;;;;;;;;;;27.41;23.27;99403.90;1772837;81;20134;-88
2021/06/05 11:46:19;;;;;;;;;;;;;;;27.75;26.33;99403.49;1773014;81;20117;-88
2021/06/05 11:49:01;;;;;;;;;;;;;;;28.05;25.98;99411.02;1755998;81;20169;-89
2021/06/05 11:51:31;;;;;;;;;;;;;;;28.23;24.87;99407.98;1798556;80;20135;-89
2021/06/05 11:54:13;;;;;;;;;;;;;;;28.22;25.64;99398.27;1798565;80;20146;-89
2021/06/05 11:56:52;;;;;;;;;;;;;;;28.41;23.85;99391.17;1775868;80;20094;-89
2021/06/05 11:59:24;;;;;;;;;;;;;;;28.74;24.26;99386.64;1765677;81;20118;-89
2021/06/05 12:01:51;;;;;;;;;;;;;;;29.15;24.10;99383.15;1774422;80;20108;-89
2021/06/05 12:04:20;;;;;;;;;;;;;;;29.48;25.34;99384.80;1798495;80;20151;-89
2021/06/05 12:06:48;;;;;;;;;;;;;;;29.68;21.99;99388.67;1798661;80;20158;-88
2021/06/05 12:09:23;;;;;;;;;;;;;;;29.83;22.04;99392.52;1798605;80;20100;-89
2021/06/05 12:11:58;;;;;;;;;;;;;;;29.94;22.64;99382.91;1798685;80;20163;-88
2021/06/05 12:17:28;;;;;;;;;;;;;;;30.24;19.62;99382.11;1790684;80;20145;-89
2021/06/05 12:20:07;;;;;;;;;;;;;;;30.73;20.88;99376.17;1798450;80;20218;-87
2021/06/05 12:22:34;;;;;;;;;;;;;;;30.77;20.24;99380.72;1798812;80;20139;-88
2021/06/05 12:25:00;;;;;;;;;;;;;;;30.98;21.10;99371.78;1764969;81;20151;-89
2021/06/05 12:27:33;;;;;;;;;;;;;;;31.05;20.34;99377.33;1798483;80;20151;-86
2021/06/05 12:30:15;;;;;;;;;;;;;;;31.34;19.33;99363.47;1799256;79;20077;-90
2021/06/05 12:32:59;;;;;;;;;;;;;;;32.01;18.92;99358.48;1692269;81;20124;-91
2021/06/05 12:35:29;;;;;;;;;;;;;;;32.84;18.60;99354.55;1767721;81;20178;-89
2021/06/05 12:37:58;;;;;;;;;;;;;;;33.58;16.75;99351.41;1772649;77;20191;-87
2021/06/05 12:43:41;;;;;;;;;;;;;;;34.82;15.47;99345.95;1752917;79;20144;-90
2021/06/05 12:46:29;;;;;;;;;;;;;;;35.44;18.44;99340.51;1826482;77;20133;-87
2021/06/05 12:49:18;;;;;;;;;;;;;;;35.83;16.88;99328.40;1681261;85;20491;-89
2021/06/05 12:52:18;;;;;;;;;;;;;;;36.14;15.77;99327.13;1717437;82;20359;-89
2021/06/05 12:54:56;;;;;;;;;;;;;;;36.89;14.61;99323.28;1670919;86;20161;-90
2021/06/05 12:57:39;;;;;;;;;;;;;;;37.56;14.03;99317.97;1670808;84;20533;-93
2021/06/05 13:00:18;;;;;;;;;;;;;;;37.97;18.58;99316.41;1671628;86;20149;-92
2021/06/05 13:02:46;;;;;;;;;;;;;;;37.85;13.30;99309.14;1659549;84;20161;-93
2021/06/05 13:05:19;;;;;;;;;;;;;;;38.46;14.32;99304.73;1672090;84;20137;-95
2021/06/05 13:07:48;;;;;;;;;;;;;;;38.73;12.60;99301.91;1669892;86;20162;-94
2021/06/05 13:10:18;;;;;;;;;;;;;;;39.33;12.02;99293.40;1670721;86;20130;-93
2021/06/05 13:12:45;;;;;;;;;;;;;;;39.78;11.48;99288.64;1655039;86;20141;-93
2021/06/05 13:15:32;;;;;;;;;;;;;;;40.36;11.53;99289.33;1657312;84;20143;-88